Time;durP1;ratioP1;P1;durP2;ratioP2;P2;SDS_P1;SDS_P2;PMS_P1;PMS_P2;Temp;Humidity;BMP_temperature;BMP_pressure;BME280_temperature;BME280_humidity;BME280_pressure;Samples;Min_cycle;Max_cycle;Signal;HPM_P1;HPM_P2
2022/11/06 00:02:16;0.00;0.00;0.62;0.00;0.00;0.62;2.10;1.80;;;25.50;25.10;;;;;;2256516;61;20366;-64
2022/11/06 00:08:05;0.00;0.00;0.62;0.00;0.00;0.62;3.20;2.10;;;25.40;24.90;;;;;;2257349;61;20355;-64
2022/11/06 00:10:49;0.00;0.00;0.62;0.00;0.00;0.62;2.10;1.60;;;25.40;24.80;;;;;;2257509;61;20362;-64
2022/11/06 00:13:34;0.00;0.00;0.62;0.00;0.00;0.62;2.30;1.70;;;25.30;24.80;;;;;;2257493;61;20437;-63
2022/11/06 00:16:20;0.00;0.00;0.62;0.00;0.00;0.62;2.50;1.63;;;25.30;24.80;;;;;;2256935;61;20355;-63
2022/11/06 00:19:06;0.00;0.00;0.62;0.00;0.00;0.62;2.60;1.63;;;25.20;24.70;;;;;;2257470;61;20363;-64
2022/11/06 00:21:51;0.00;0.00;0.62;0.00;0.00;0.62;2.00;1.30;;;25.20;24.80;;;;;;2257406;61;20777;-63
2022/11/06 00:24:35;0.00;0.00;0.62;0.00;0.00;0.62;3.37;1.57;;;25.20;24.80;;;;;;2256530;61;20763;-64
2022/11/06 00:27:20;0.00;0.00;0.62;0.00;0.00;0.62;2.70;1.90;;;25.20;24.80;;;;;;2257782;61;20387;-65
2022/11/06 00:30:13;0.00;0.00;0.62;0.00;0.00;0.62;4.07;1.80;;;25.10;24.80;;;;;;2258140;61;20455;-64
2022/11/06 00:32:59;0.00;0.00;0.62;0.00;0.00;0.62;2.60;1.67;;;25.10;24.90;;;;;;2257949;61;20374;-64
2022/11/06 00:35:44;0.00;0.00;0.62;0.00;0.00;0.62;2.47;1.70;;;25.10;24.90;;;;;;2258326;61;20390;-64
2022/11/06 00:38:28;0.00;0.00;0.62;0.00;0.00;0.62;2.83;1.80;;;25.10;24.90;;;;;;2257704;61;20358;-64
2022/11/06 00:41:15;0.00;0.00;0.62;0.00;0.00;0.62;4.03;2.27;;;25.00;24.80;;;;;;2258121;61;20410;-64
2022/11/06 00:44:01;0.00;0.00;0.62;0.00;0.00;0.62;2.30;1.70;;;25.00;24.70;;;;;;2258398;61;20377;-65
2022/11/06 00:46:46;0.00;0.00;0.62;0.00;0.00;0.62;3.40;1.90;;;24.90;24.60;;;;;;2257201;61;20374;-64
2022/11/06 00:49:32;0.00;0.00;0.62;0.00;0.00;0.62;2.87;1.37;;;24.90;24.70;;;;;;2258343;61;20613;-65
2022/11/06 00:52:17;0.00;0.00;0.62;0.00;0.00;0.62;2.90;2.07;;;24.90;24.70;;;;;;2257859;61;20784;-65
2022/11/06 00:55:01;0.00;0.00;0.62;0.00;0.00;0.62;2.57;1.77;;;24.90;24.60;;;;;;2257985;61;20722;-64
2022/11/06 00:57:46;0.00;0.00;0.62;0.00;0.00;0.62;4.77;1.87;;;24.80;24.60;;;;;;2258350;61;20726;-65
2022/11/06 01:00:30;0.00;0.00;0.62;0.00;0.00;0.62;3.57;1.60;;;24.80;24.60;;;;;;2257450;61;20378;-65
2022/11/06 01:03:15;0.00;0.00;0.62;0.00;0.00;0.62;3.20;2.00;;;24.70;24.60;;;;;;2257493;61;20387;-65
2022/11/06 01:06:07;0.00;0.00;0.62;0.00;0.00;0.62;4.57;1.73;;;24.70;24.60;;;;;;2258322;61;20579;-65
2022/11/06 01:08:52;0.00;0.00;0.62;0.00;0.00;0.62;2.90;2.03;;;24.70;24.50;;;;;;2257108;61;20379;-65
2022/11/06 01:11:40;0.00;0.00;0.62;0.00;0.00;0.62;4.27;2.20;;;24.70;24.50;;;;;;2258393;61;20388;-65
2022/11/06 01:14:26;0.00;0.00;0.62;0.00;0.00;0.62;2.37;1.87;;;24.60;24.50;;;;;;2257797;61;20386;-65
2022/11/06 01:17:12;0.00;0.00;0.62;0.00;0.00;0.62;2.07;1.40;;;24.60;24.60;;;;;;2257857;61;20354;-65
2022/11/06 01:19:56;0.00;0.00;0.62;0.00;0.00;0.62;2.70;2.07;;;24.50;24.50;;;;;;2258242;61;20359;-65
2022/11/06 01:22:42;0.00;0.00;0.62;0.00;0.00;0.62;2.87;1.70;;;24.50;24.50;;;;;;2257283;61;20402;-65
2022/11/06 01:25:27;0.00;0.00;0.62;0.00;0.00;0.62;2.63;1.80;;;24.50;24.60;;;;;;2257840;61;20379;-65
2022/11/06 01:28:12;0.00;0.00;0.62;0.00;0.00;0.62;2.10;1.60;;;24.50;24.60;;;;;;2258146;61;20374;-65
2022/11/06 01:31:01;0.00;0.00;0.62;0.00;0.00;0.62;2.40;1.50;;;24.40;24.60;;;;;;2257270;61;20382;-65
2022/11/06 01:33:46;0.00;0.00;0.62;0.00;0.00;0.62;2.23;1.60;;;24.40;24.60;;;;;;2258034;61;20378;-65
2022/11/06 01:36:32;0.00;0.00;0.62;0.00;0.00;0.62;3.33;2.63;;;24.40;24.60;;;;;;2257800;61;20362;-65
2022/11/06 01:39:19;0.00;0.00;0.62;0.00;0.00;0.62;2.50;1.80;;;24.30;24.60;;;;;;2257126;61;20406;-65
2022/11/06 01:42:04;0.00;0.00;0.62;0.00;0.00;0.62;3.70;1.67;;;24.30;24.60;;;;;;2257992;61;20362;-65
2022/11/06 01:45:32;0.00;0.00;0.62;0.00;0.00;0.62;3.30;2.57;;;24.30;24.50;;;;;;2257277;61;20379;-65
2022/11/06 01:48:20;0.00;0.00;0.62;0.00;0.00;0.62;2.47;1.93;;;24.20;24.50;;;;;;2258140;61;20422;-65
2022/11/06 01:51:06;0.00;0.00;0.62;0.00;0.00;0.62;2.67;1.70;;;24.20;24.50;;;;;;2258127;61;20359;-65
2022/11/06 01:53:52;0.00;0.00;0.62;0.00;0.00;0.62;2.33;1.87;;;24.20;24.50;;;;;;2257360;61;20599;-64
2022/11/06 01:56:42;0.00;0.00;0.62;0.00;0.00;0.62;3.60;1.73;;;24.20;24.50;;;;;;2258042;61;20355;-65
2022/11/06 01:59:30;0.00;0.00;0.62;0.00;0.00;0.62;2.70;2.00;;;24.10;24.50;;;;;;2257314;61;20367;-66
2022/11/06 02:02:16;0.00;0.00;0.62;0.00;0.00;0.62;2.80;1.80;;;24.10;24.50;;;;;;2257857;61;20587;-65
2022/11/06 02:05:01;0.00;0.00;0.62;0.00;0.00;0.62;2.50;1.70;;;24.10;24.60;;;;;;2257891;61;20402;-65
2022/11/06 02:07:46;0.00;0.00;0.62;0.00;0.00;0.62;2.80;2.30;;;24.00;24.50;;;;;;2257036;61;20358;-65
2022/11/06 02:10:32;0.00;0.00;0.62;0.00;0.00;0.62;3.20;1.70;;;24.00;24.50;;;;;;2258116;61;20618;-64
2022/11/06 02:13:31;0.00;0.00;0.62;0.00;0.00;0.62;3.10;2.10;;;24.00;24.50;;;;;;2257925;61;20670;-65
2022/11/06 02:16:25;0.00;0.00;0.62;0.00;0.00;0.62;3.07;1.80;;;24.00;24.50;;;;;;2257365;61;20359;-65
2022/11/06 02:19:38;0.00;0.00;0.62;0.00;0.00;0.62;2.80;2.17;;;24.00;24.50;;;;;;2258055;61;20351;-65
2022/11/06 02:22:46;0.00;0.00;0.62;0.00;0.00;0.62;2.83;2.20;;;23.90;24.40;;;;;;2257252;61;20463;-65
2022/11/06 02:25:45;0.00;0.00;0.62;0.00;0.00;0.62;2.27;1.90;;;23.90;24.50;;;;;;2261843;61;20437;-65
2022/11/06 02:28:38;0.00;0.00;0.62;0.00;0.00;0.62;4.00;1.90;;;23.90;24.50;;;;;;2256081;61;20385;-65
2022/11/06 02:31:29;0.00;0.00;0.62;0.00;0.00;0.62;3.97;2.40;;;23.80;24.40;;;;;;2257340;61;20366;-65
2022/11/06 02:34:17;0.00;0.00;0.62;0.00;0.00;0.62;2.20;1.83;;;23.80;24.30;;;;;;2257103;61;20398;-65
2022/11/06 02:37:09;0.00;0.00;0.62;0.00;0.00;0.62;3.07;1.60;;;23.70;24.30;;;;;;2257302;61;20444;-65
2022/11/06 02:39:58;0.00;0.00;0.62;0.00;0.00;0.62;3.53;2.20;;;23.70;24.40;;;;;;2254762;61;20398;-65
2022/11/06 02:42:47;0.00;0.00;0.62;0.00;0.00;0.62;2.97;1.87;;;23.70;24.40;;;;;;2257854;61;20674;-64
2022/11/06 02:45:40;0.00;0.00;0.62;0.00;0.00;0.62;3.80;2.33;;;23.70;24.40;;;;;;2257215;61;20402;-65
2022/11/06 02:48:30;0.00;0.00;0.62;0.00;0.00;0.62;2.67;2.13;;;23.60;24.40;;;;;;2257982;61;20363;-64
2022/11/06 02:51:20;0.00;0.00;0.62;0.00;0.00;0.62;2.90;1.90;;;23.60;24.40;;;;;;2257009;61;20418;-65
2022/11/06 02:54:07;0.00;0.00;0.62;0.00;0.00;0.62;2.90;1.90;;;23.60;24.40;;;;;;2257464;61;20757;-65
2022/11/06 02:56:56;0.00;0.00;0.62;0.00;0.00;0.62;2.43;1.90;;;23.60;24.50;;;;;;2257946;61;20390;-65
2022/11/06 02:59:48;0.00;0.00;0.62;0.00;0.00;0.62;3.63;2.10;;;23.60;24.50;;;;;;2253704;61;20347;-65
2022/11/06 03:02:41;0.00;0.00;0.62;0.00;0.00;0.62;2.63;2.03;;;23.60;24.50;;;;;;2257821;61;20390;-64
2022/11/06 03:05:31;0.00;0.00;0.62;0.00;0.00;0.62;2.50;2.00;;;23.60;24.50;;;;;;2257612;61;20359;-64
2022/11/06 03:08:22;0.00;0.00;0.62;0.00;0.00;0.62;2.77;1.80;;;23.50;24.50;;;;;;2257645;61;20362;-65
2022/11/06 03:11:14;0.00;0.00;0.62;0.00;0.00;0.62;2.10;1.60;;;23.50;24.50;;;;;;2257971;61;20359;-65
2022/11/06 03:14:07;0.00;0.00;0.62;0.00;0.00;0.62;3.97;2.30;;;23.50;24.50;;;;;;2256906;61;20774;-64
2022/11/06 03:16:58;0.00;0.00;0.62;0.00;0.00;0.62;2.23;2.03;;;23.50;24.50;;;;;;2257883;61;20354;-64
2022/11/06 03:19:47;0.00;0.00;0.62;0.00;0.00;0.62;3.63;2.23;;;23.50;24.60;;;;;;2257890;61;20726;-65
2022/11/06 03:22:40;0.00;0.00;0.62;0.00;0.00;0.62;2.97;2.43;;;23.40;24.50;;;;;;2257019;61;20483;-65
2022/11/06 03:25:29;0.00;0.00;0.62;0.00;0.00;0.62;3.37;2.10;;;23.40;24.60;;;;;;2257755;61;20394;-64
2022/11/06 03:28:22;0.00;0.00;0.62;0.00;0.00;0.62;3.00;2.17;;;23.40;24.60;;;;;;2257033;61;20374;-64
2022/11/06 03:31:13;0.00;0.00;0.62;0.00;0.00;0.62;4.10;2.10;;;23.40;24.70;;;;;;2257624;61;20387;-64
2022/11/06 03:34:01;0.00;0.00;0.62;0.00;0.00;0.62;6.70;2.03;;;23.40;24.70;;;;;;2257673;61;20390;-65
2022/11/06 03:36:53;0.00;0.00;0.62;0.00;0.00;0.62;2.43;2.23;;;23.30;24.60;;;;;;2260614;61;20421;-64
2022/11/06 03:39:45;0.00;0.00;0.62;0.00;0.00;0.62;2.10;1.70;;;23.30;24.60;;;;;;2261819;61;20426;-64
2022/11/06 03:42:30;0.00;0.00;0.62;0.00;0.00;0.62;2.50;2.20;;;23.30;24.60;;;;;;2261390;61;20374;-65
2022/11/06 03:45:19;0.00;0.00;0.62;0.00;0.00;0.62;2.50;2.00;;;23.30;24.60;;;;;;2258189;61;20951;-65
2022/11/06 03:48:10;0.00;0.00;0.62;0.00;0.00;0.62;3.27;2.10;;;23.30;25.20;;;;;;2261820;61;20431;-65
2022/11/06 03:51:01;0.00;0.00;0.62;0.00;0.00;0.62;2.57;1.90;;;23.30;24.60;;;;;;2257777;61;20381;-65
2022/11/06 03:53:51;0.00;0.00;0.62;0.00;0.00;0.62;3.30;2.23;;;23.30;24.60;;;;;;2261724;61;20861;-65
2022/11/06 03:56:41;0.00;0.00;0.62;0.00;0.00;0.62;2.93;2.10;;;23.30;25.20;;;;;;2261710;61;20361;-64
2022/11/06 03:59:32;0.00;0.00;0.62;0.00;0.00;0.62;3.03;1.87;;;23.30;24.70;;;;;;2261277;61;20396;-65
2022/11/06 04:02:20;0.00;0.00;0.62;0.00;0.00;0.62;3.20;2.23;;;23.30;24.70;;;;;;2261646;61;20354;-64
2022/11/06 04:05:14;0.00;0.00;0.62;0.00;0.00;0.62;3.13;2.00;;;23.30;24.70;;;;;;2260794;61;20369;-64
2022/11/06 04:14:12;0.00;0.00;0.62;0.00;0.00;0.62;3.60;2.17;;;23.20;24.60;;;;;;2260667;61;20620;-64
2022/11/06 04:17:01;0.00;0.00;0.62;0.00;0.00;0.62;3.70;2.20;;;23.20;24.60;;;;;;2261677;61;20722;-64
2022/11/06 04:19:49;0.00;0.00;0.62;0.00;0.00;0.62;3.43;1.93;;;23.20;24.60;;;;;;2261031;61;20354;-64
2022/11/06 04:22:47;0.00;0.00;0.62;0.00;0.00;0.62;2.77;2.00;;;23.10;24.50;;;;;;2261177;61;20424;-65
2022/11/06 04:28:58;0.00;0.00;0.62;0.00;0.00;0.62;3.10;2.10;;;23.10;24.60;;;;;;2260781;61;20645;-65
2022/11/06 04:31:53;0.00;0.00;0.62;0.00;0.00;0.62;3.30;1.87;;;23.10;24.60;;;;;;2261691;61;20428;-65
2022/11/06 04:34:45;0.00;0.00;0.62;0.00;0.00;0.62;3.17;2.13;;;23.10;24.60;;;;;;2259233;61;20620;-65
2022/11/06 04:37:38;0.00;0.00;0.62;0.00;0.00;0.62;2.93;2.40;;;23.00;24.60;;;;;;2261408;61;20354;-64
2022/11/06 04:40:31;0.00;0.00;0.62;0.00;0.00;0.62;3.47;1.90;;;23.00;24.60;;;;;;2261643;61;20401;-64
2022/11/06 04:43:24;0.00;0.00;0.62;0.00;0.00;0.62;4.80;2.10;;;22.90;24.60;;;;;;2259693;61;20446;-65
2022/11/06 04:46:18;0.00;0.00;0.62;0.00;0.00;0.62;5.63;2.30;;;22.90;24.60;;;;;;2261009;61;20362;-65
2022/11/06 04:49:06;0.00;0.00;0.62;0.00;0.00;0.62;2.50;1.87;;;22.90;24.60;;;;;;2261406;61;20493;-64
2022/11/06 04:51:51;0.00;0.00;0.62;0.00;0.00;0.62;2.87;1.90;;;22.90;24.60;;;;;;2260899;61;20357;-64
2022/11/06 04:54:36;0.00;0.00;0.62;0.00;0.00;0.62;2.90;2.20;;;22.90;24.70;;;;;;2261319;61;20373;-65
2022/11/06 04:57:22;0.00;0.00;0.62;0.00;0.00;0.62;4.23;2.30;;;22.80;24.70;;;;;;2260820;61;20361;-65
2022/11/06 05:00:12;0.00;0.00;0.62;0.00;0.00;0.62;2.50;2.07;;;22.80;24.70;;;;;;2260995;61;20394;-64
2022/11/06 05:02:59;0.00;0.00;0.62;0.00;0.00;0.62;3.20;2.27;;;22.80;24.70;;;;;;2258152;61;20377;-64
2022/11/06 05:05:44;0.00;0.00;0.62;0.00;0.00;0.62;2.50;1.80;;;22.80;24.70;;;;;;2260608;61;20462;-66
2022/11/06 05:08:28;0.00;0.00;0.62;0.00;0.00;0.62;3.10;2.50;;;22.80;24.70;;;;;;2261284;61;20384;-66
2022/11/06 05:11:13;0.00;0.00;0.62;0.00;0.00;0.62;3.30;1.90;;;22.70;24.60;;;;;;2261374;61;20714;-64
2022/11/06 05:13:58;0.00;0.00;0.62;0.00;0.00;0.62;3.40;1.67;;;22.70;24.60;;;;;;2260954;61;20381;-64
2022/11/06 05:16:42;0.00;0.00;0.62;0.00;0.00;0.62;2.50;1.80;;;22.70;24.70;;;;;;2261825;61;20426;-63
2022/11/06 05:19:28;0.00;0.00;0.62;0.00;0.00;0.62;4.07;1.70;;;22.70;24.70;;;;;;2261600;61;20358;-65
2022/11/06 05:25:17;0.00;0.00;0.62;0.00;0.00;0.62;2.47;2.20;;;22.70;24.70;;;;;;2258932;61;20373;-64
2022/11/06 05:28:05;0.00;0.00;0.62;0.00;0.00;0.62;5.63;2.23;;;22.70;24.70;;;;;;2261287;61;20444;-64
2022/11/06 05:30:50;0.00;0.00;0.62;0.00;0.00;0.62;2.87;1.60;;;22.70;24.80;;;;;;2261864;61;20392;-64
2022/11/06 05:33:35;0.00;0.00;0.62;0.00;0.00;0.62;3.60;2.00;;;22.70;24.80;;;;;;2260597;61;20422;-64
2022/11/06 05:36:21;0.00;0.00;0.62;0.00;0.00;0.62;2.30;1.90;;;22.70;24.80;;;;;;2257620;61;20355;-65
2022/11/06 05:39:06;0.00;0.00;0.62;0.00;0.00;0.62;2.47;1.90;;;22.70;24.80;;;;;;2257589;61;20358;-64
2022/11/06 05:41:50;0.00;0.00;0.62;0.00;0.00;0.62;2.40;1.73;;;22.70;24.80;;;;;;2257378;61;20367;-64
2022/11/06 05:44:36;0.00;0.00;0.62;0.00;0.00;0.62;2.90;2.30;;;22.60;24.70;;;;;;2257488;61;20379;-64
2022/11/06 05:47:21;0.00;0.00;0.62;0.00;0.00;0.62;3.50;2.10;;;22.60;25.20;;;;;;2257983;61;20395;-64
2022/11/06 05:50:06;0.00;0.00;0.62;0.00;0.00;0.62;2.93;2.10;;;22.60;24.80;;;;;;2256980;61;20521;-64
2022/11/06 05:52:53;0.00;0.00;0.62;0.00;0.00;0.62;1.93;1.70;;;22.60;24.80;;;;;;2257693;61;20371;-65
2022/11/06 05:55:37;0.00;0.00;0.62;0.00;0.00;0.62;2.40;1.93;;;22.60;24.80;;;;;;2257892;61;20406;-65
2022/11/06 05:58:22;0.00;0.00;0.62;0.00;0.00;0.62;2.60;2.13;;;22.60;24.80;;;;;;2257292;61;20363;-64
2022/11/06 06:01:08;0.00;0.00;0.62;0.00;0.00;0.62;2.47;1.60;;;22.60;24.80;;;;;;2257892;61;20355;-65
2022/11/06 06:03:53;0.00;0.00;0.62;0.00;0.00;0.62;2.17;1.53;;;22.60;24.80;;;;;;2257299;61;20386;-65
2022/11/06 06:06:38;0.00;0.00;0.62;0.00;0.00;0.62;2.33;1.60;;;22.60;24.80;;;;;;2257144;61;20390;-65
2022/11/06 06:09:24;0.00;0.00;0.62;0.00;0.00;0.62;2.63;1.80;;;22.60;24.80;;;;;;2257907;61;20398;-64
2022/11/06 06:12:11;0.00;0.00;0.62;0.00;0.00;0.62;3.50;2.30;;;22.50;24.80;;;;;;2256972;61;20358;-65
2022/11/06 06:14:56;0.00;0.00;0.62;0.00;0.00;0.62;3.17;2.00;;;22.60;24.90;;;;;;2257955;61;20418;-65
2022/11/06 06:17:40;0.00;0.00;0.62;0.00;0.00;0.62;3.63;2.30;;;22.50;24.80;;;;;;2257915;61;20435;-64
2022/11/06 06:20:25;0.00;0.00;0.62;0.00;0.00;0.62;2.43;1.90;;;22.50;24.80;;;;;;2257152;61;20387;-66
2022/11/06 06:23:10;0.00;0.00;0.62;0.00;0.00;0.62;2.23;1.87;;;22.50;24.80;;;;;;2257702;61;20390;-66
2022/11/06 06:25:57;0.00;0.00;0.62;0.00;0.00;0.62;4.00;1.90;;;22.50;24.80;;;;;;2257294;61;20370;-65
2022/11/06 06:28:41;0.00;0.00;0.62;0.00;0.00;0.62;2.30;1.70;;;22.50;24.80;;;;;;2257546;61;20433;-65
2022/11/06 06:31:26;0.00;0.00;0.62;0.00;0.00;0.62;6.83;2.33;;;22.50;24.80;;;;;;2257779;61;20363;-65
2022/11/06 06:34:11;0.00;0.00;0.62;0.00;0.00;0.62;3.03;1.80;;;22.50;24.80;;;;;;2256874;61;20418;-65
2022/11/06 06:36:55;0.00;0.00;0.62;0.00;0.00;0.62;3.40;1.93;;;22.50;24.80;;;;;;2257688;61;20580;-65
2022/11/06 06:39:40;0.00;0.00;0.62;0.00;0.00;0.62;2.30;1.97;;;22.40;24.70;;;;;;2257841;61;20397;-65
2022/11/06 06:42:27;0.00;0.00;0.62;0.00;0.00;0.62;2.60;2.07;;;22.40;24.80;;;;;;2256989;61;20757;-65
2022/11/06 06:45:12;0.00;0.00;0.62;0.00;0.00;0.62;2.10;1.90;;;22.40;24.80;;;;;;2257659;61;20362;-65
2022/11/06 06:48:01;0.00;0.00;0.62;0.00;0.00;0.62;2.33;1.90;;;22.40;24.80;;;;;;2257364;61;20798;-65
2022/11/06 06:50:46;0.00;0.00;0.62;0.00;0.00;0.62;2.93;2.30;;;22.40;24.80;;;;;;2257493;61;20810;-68
2022/11/06 06:53:31;0.00;0.00;0.62;0.00;0.00;0.62;3.73;2.50;;;22.30;24.80;;;;;;2257656;61;20387;-66
2022/11/06 06:56:16;0.00;0.00;0.62;0.00;0.00;0.62;8.50;2.47;;;22.30;24.80;;;;;;2257217;61;20370;-65
2022/11/06 06:59:02;0.00;0.00;0.62;0.00;0.00;0.62;3.10;2.10;;;22.30;24.80;;;;;;2257716;61;20362;-65
2022/11/06 07:01:47;0.00;0.00;0.62;0.00;0.00;0.62;3.97;2.10;;;22.20;24.70;;;;;;2257792;61;20402;-65
2022/11/06 07:04:32;0.00;0.00;0.62;0.00;0.00;0.62;2.97;2.27;;;22.20;24.70;;;;;;2256971;61;20383;-65
2022/11/06 07:07:17;0.00;0.00;0.62;0.00;0.00;0.62;2.67;1.83;;;22.20;24.70;;;;;;2257646;61;20358;-65
2022/11/06 07:10:01;0.00;0.00;0.62;0.00;0.00;0.62;3.13;2.30;;;22.10;24.70;;;;;;2257177;61;20434;-66
2022/11/06 07:12:46;0.00;0.00;0.62;0.00;0.00;0.62;5.07;2.63;;;22.10;25.30;;;;;;2257216;61;20358;-65
2022/11/06 07:15:32;0.00;0.00;0.62;0.00;0.00;0.62;4.20;2.60;;;22.10;24.80;;;;;;2257631;61;20381;-65
2022/11/06 07:18:17;0.00;0.00;0.62;0.00;0.00;0.62;4.70;2.50;;;22.10;24.90;;;;;;2257214;61;20398;-65
2022/11/06 07:21:04;0.00;0.00;0.62;0.00;0.00;0.62;2.90;2.23;;;22.00;24.90;;;;;;2257556;61;20363;-66
2022/11/06 07:23:49;0.00;0.00;0.62;0.00;0.00;0.62;3.30;2.13;;;22.00;24.90;;;;;;2257557;61;20669;-65
2022/11/06 07:26:34;0.00;0.00;0.62;0.00;0.00;0.62;3.40;2.10;;;22.00;25.00;;;;;;2256804;61;20363;-66
2022/11/06 07:29:19;0.00;0.00;0.62;0.00;0.00;0.62;3.27;2.00;;;22.00;25.10;;;;;;2257592;61;20383;-67
2022/11/06 07:32:07;0.00;0.00;0.62;0.00;0.00;0.62;2.80;1.80;;;21.90;25.00;;;;;;2254306;61;20478;-63
2022/11/06 07:34:52;0.00;0.00;0.62;0.00;0.00;0.62;3.57;2.00;;;21.90;25.00;;;;;;2256733;61;20402;-67
2022/11/06 07:37:37;0.00;0.00;0.62;0.00;0.00;0.62;2.93;2.20;;;22.00;25.10;;;;;;2257479;61;20366;-73
2022/11/06 07:40:22;0.00;0.00;0.62;0.00;0.00;0.62;2.37;1.83;;;22.00;25.20;;;;;;2257056;61;20375;-70
2022/11/06 07:43:09;0.00;0.00;0.62;0.00;0.00;0.62;3.17;2.20;;;22.00;25.20;;;;;;2257242;61;20417;-70
2022/11/06 07:45:56;0.00;0.00;0.62;0.00;0.00;0.62;2.83;2.30;;;22.00;25.20;;;;;;2257561;61;20354;-72
2022/11/06 07:48:43;0.00;0.00;0.62;0.00;0.00;0.62;4.13;2.20;;;22.00;25.80;;;;;;2256402;61;20439;-70
2022/11/06 07:51:27;0.00;0.00;0.62;0.00;0.00;0.62;2.07;1.50;;;22.00;25.30;;;;;;2257660;61;20386;-66
2022/11/06 07:54:12;0.00;0.00;0.62;0.00;0.00;0.62;4.20;1.73;;;22.10;25.30;;;;;;2256982;61;20418;-71
2022/11/06 07:56:57;0.00;0.00;0.62;0.00;0.00;0.62;2.70;2.10;;;22.10;25.40;;;;;;2254084;61;20544;-72
2022/11/06 07:59:41;0.00;0.00;0.62;0.00;0.00;0.62;4.30;2.40;;;22.10;25.30;;;;;;2257690;61;20727;-70
2022/11/06 08:02:26;0.00;0.00;0.62;0.00;0.00;0.62;3.30;2.50;;;22.10;25.30;;;;;;2256804;61;20367;-67
2022/11/06 08:05:12;0.00;0.00;0.62;0.00;0.00;0.62;3.10;2.50;;;22.10;25.30;;;;;;2260308;61;20566;-70
2022/11/06 08:07:57;0.00;0.00;0.62;0.00;0.00;0.62;2.40;2.00;;;22.10;25.30;;;;;;2260750;61;20429;-67
2022/11/06 08:10:42;0.00;0.00;0.62;0.00;0.00;0.62;2.37;1.80;;;22.10;25.40;;;;;;2260589;61;20432;-70
2022/11/06 08:13:27;0.00;0.00;0.62;0.00;0.00;0.62;2.70;2.30;;;22.20;25.40;;;;;;2261481;61;20637;-68
2022/11/06 08:16:14;0.00;0.00;0.62;0.00;0.00;0.62;3.37;2.40;;;22.20;25.40;;;;;;2261040;61;20361;-69
2022/11/06 08:19:00;0.00;0.00;0.62;0.00;0.00;0.62;3.93;2.30;;;22.20;25.40;;;;;;2258070;61;20373;-69
2022/11/06 08:21:46;0.00;0.00;0.62;0.00;0.00;0.62;3.53;2.30;;;22.20;25.40;;;;;;2261171;61;20366;-70
2022/11/06 08:24:30;0.00;0.00;0.62;0.00;0.00;0.62;5.67;2.27;;;22.30;25.40;;;;;;2260961;61;20508;-72
2022/11/06 08:27:15;0.00;0.00;0.62;0.00;0.00;0.62;2.73;2.37;;;22.30;25.40;;;;;;2261306;61;20592;-68
2022/11/06 08:30:00;0.00;0.00;0.62;0.00;0.00;0.62;2.80;1.73;;;22.30;25.40;;;;;;2261495;61;20665;-69
2022/11/06 08:32:44;0.00;0.00;0.62;0.00;0.00;0.62;3.03;2.30;;;22.30;25.30;;;;;;2260687;61;20365;-67
2022/11/06 08:35:29;0.00;0.00;0.62;0.00;0.00;0.62;2.60;2.17;;;22.30;25.30;;;;;;2261460;61;20570;-69
2022/11/06 08:38:15;0.00;0.00;0.62;0.00;0.00;0.62;4.57;2.87;;;22.40;25.40;;;;;;2258564;61;20777;-69
2022/11/06 08:41:04;0.00;0.00;0.62;0.00;0.00;0.62;4.60;2.63;;;22.40;25.40;;;;;;2255969;61;20770;-70
2022/11/06 08:43:51;0.00;0.00;0.62;0.00;0.00;0.62;2.80;2.30;;;22.40;25.40;;;;;;2263794;61;20390;-66
2022/11/06 08:46:35;0.00;0.00;0.62;0.00;0.00;0.62;2.50;2.00;;;22.40;25.40;;;;;;2256922;61;20390;-65
2022/11/06 08:49:20;0.00;0.00;0.62;0.00;0.00;0.62;3.80;3.00;;;22.50;25.40;;;;;;2256962;61;20410;-69
2022/11/06 08:52:05;0.00;0.00;0.62;0.00;0.00;0.62;3.70;2.17;;;22.40;25.30;;;;;;2257884;61;20354;-66
2022/11/06 08:54:52;0.00;0.00;0.62;0.00;0.00;0.62;4.63;2.23;;;22.50;25.30;;;;;;2257106;61;20792;-65
2022/11/06 08:57:36;0.00;0.00;0.62;0.00;0.00;0.62;2.50;2.20;;;22.50;25.30;;;;;;2258056;61;20483;-70
2022/11/06 09:00:21;0.00;0.00;0.62;0.00;0.00;0.62;2.80;2.37;;;22.60;25.30;;;;;;2258216;61;20751;-68
2022/11/06 09:03:13;0.00;0.00;0.62;0.00;0.00;0.62;3.10;2.10;;;22.60;25.30;;;;;;2257233;61;20596;-69
2022/11/06 09:05:57;0.00;0.00;0.62;0.00;0.00;0.62;3.20;2.60;;;22.60;25.30;;;;;;2257563;61;20750;-74
2022/11/06 09:08:42;0.00;0.00;0.62;0.00;0.00;0.62;3.37;3.07;;;22.60;25.20;;;;;;2257288;61;20350;-69
2022/11/06 09:11:28;0.00;0.00;0.62;0.00;0.00;0.62;3.50;2.37;;;22.60;25.20;;;;;;2257801;61;20390;-66
2022/11/06 09:14:12;0.00;0.00;0.62;0.00;0.00;0.62;2.83;1.93;;;22.60;25.20;;;;;;2257778;61;20458;-66
2022/11/06 09:16:57;0.00;0.00;0.62;0.00;0.00;0.62;4.23;2.83;;;22.70;25.20;;;;;;2257006;61;20435;-69
2022/11/06 09:19:42;0.00;0.00;0.62;0.00;0.00;0.62;3.10;2.07;;;22.70;25.20;;;;;;2257977;61;20382;-71
2022/11/06 09:22:27;0.00;0.00;0.62;0.00;0.00;0.62;3.57;2.20;;;22.60;25.10;;;;;;2257570;61;20370;-67
2022/11/06 09:25:12;0.00;0.00;0.62;0.00;0.00;0.62;2.40;2.00;;;22.70;25.20;;;;;;2257023;61;20402;-70
2022/11/06 09:27:58;0.00;0.00;0.62;0.00;0.00;0.62;3.23;2.47;;;22.70;25.20;;;;;;2257574;61;20359;-68
2022/11/06 09:30:43;0.00;0.00;0.62;0.00;0.00;0.62;4.17;2.20;;;22.70;25.20;;;;;;2257254;61;20612;-69
2022/11/06 09:33:28;0.00;0.00;0.62;0.00;0.00;0.62;4.07;2.30;;;22.70;25.20;;;;;;2256578;61;20449;-67
2022/11/06 09:36:13;0.00;0.00;0.62;0.00;0.00;0.62;2.60;1.93;;;22.70;25.20;;;;;;2256294;61;20366;-66
2022/11/06 09:38:58;0.00;0.00;0.62;0.00;0.00;0.62;4.03;2.63;;;22.70;25.20;;;;;;2257696;61;20366;-68
2022/11/06 09:41:54;0.00;0.00;0.62;0.00;0.00;0.62;3.10;2.33;;;22.70;25.30;;;;;;2258217;61;20366;-69
2022/11/06 09:44:56;0.00;0.00;0.62;0.00;0.00;0.62;6.23;2.30;;;22.80;25.40;;;;;;2253957;61;20383;-69
2022/11/06 09:47:46;0.00;0.00;0.62;0.00;0.00;0.62;2.33;1.93;;;22.80;25.30;;;;;;2253338;61;20577;-69
2022/11/06 09:50:36;0.00;0.00;0.62;0.00;0.00;0.62;2.33;1.73;;;22.90;25.50;;;;;;2253713;61;20415;-70
2022/11/06 09:53:30;0.00;0.00;0.62;0.00;0.00;0.62;3.33;2.27;;;22.90;25.40;;;;;;2253651;61;20423;-67
2022/11/06 09:56:17;0.00;0.00;0.62;0.00;0.00;0.62;3.60;2.40;;;23.00;25.50;;;;;;2253834;61;20407;-68
2022/11/06 09:59:06;0.00;0.00;0.62;0.00;0.00;0.62;3.50;2.00;;;23.00;25.40;;;;;;2254007;61;20562;-69
2022/11/06 10:01:55;0.00;0.00;0.62;0.00;0.00;0.62;4.23;2.00;;;23.10;25.50;;;;;;2253149;61;20407;-69
2022/11/06 10:04:48;0.00;0.00;0.62;0.00;0.00;0.62;3.27;1.97;;;23.10;25.40;;;;;;2257563;61;20403;-68
2022/11/06 10:07:35;0.00;0.00;0.62;0.00;0.00;0.62;3.87;2.50;;;23.10;25.40;;;;;;2257708;61;20355;-68
2022/11/06 10:10:26;0.00;0.00;0.62;0.00;0.00;0.62;2.23;1.80;;;23.20;25.40;;;;;;2257764;61;20403;-69
2022/11/06 10:13:31;0.00;0.00;0.62;0.00;0.00;0.62;2.93;2.00;;;23.20;25.40;;;;;;2257650;61;20379;-65
2022/11/06 10:16:28;0.00;0.00;0.62;0.00;0.00;0.62;2.70;1.80;;;23.30;25.50;;;;;;2257127;61;20355;-69
2022/11/06 10:19:37;0.00;0.00;0.62;0.00;0.00;0.62;3.10;1.80;;;23.30;25.50;;;;;;2258174;61;20375;-64
2022/11/06 10:22:25;0.00;0.00;0.62;0.00;0.00;0.62;3.47;1.60;;;23.40;25.60;;;;;;2257164;61;20362;-70
2022/11/06 10:25:20;0.00;0.00;0.62;0.00;0.00;0.62;2.40;1.53;;;23.50;25.70;;;;;;2257675;61;20362;-67
2022/11/06 10:28:30;0.00;0.00;0.62;0.00;0.00;0.62;2.17;1.43;;;23.50;25.70;;;;;;2257696;61;20398;-65
2022/11/06 10:31:23;0.00;0.00;0.62;0.00;0.00;0.62;2.50;1.70;;;23.60;25.80;;;;;;2257278;61;20611;-64
2022/11/06 10:34:13;0.00;0.00;0.62;0.00;0.00;0.62;2.97;1.90;;;23.70;25.90;;;;;;2257964;61;20515;-67
2022/11/06 10:37:05;0.00;0.00;0.62;0.00;0.00;0.62;2.50;1.50;;;23.70;25.90;;;;;;2257569;61;20362;-68
2022/11/06 10:39:49;0.00;0.00;0.62;0.00;0.00;0.62;1.87;1.40;;;23.80;26.00;;;;;;2257650;61;20571;-69
2022/11/06 10:42:36;0.00;0.00;0.62;0.00;0.00;0.62;2.20;1.50;;;23.80;25.90;;;;;;2257600;61;20359;-68
2022/11/06 10:45:22;0.00;0.00;0.62;0.00;0.00;0.62;2.63;1.53;;;23.90;26.00;;;;;;2257465;61;20399;-63
2022/11/06 10:48:26;0.00;0.00;0.62;0.00;0.00;0.62;2.10;1.50;;;24.00;26.10;;;;;;2257738;61;20387;-69
2022/11/06 10:51:36;0.00;0.00;0.62;0.00;0.00;0.62;2.10;1.20;;;24.00;26.10;;;;;;2257612;61;20636;-69
2022/11/06 10:54:46;0.00;0.00;0.62;0.00;0.00;0.62;2.13;1.20;;;24.10;26.20;;;;;;2257335;61;20417;-69
2022/11/06 10:57:39;0.00;0.00;0.62;0.00;0.00;0.62;1.70;1.33;;;24.10;26.10;;;;;;2257508;61;20378;-69
2022/11/06 11:00:25;0.00;0.00;0.62;0.00;0.00;0.62;2.43;1.17;;;24.20;26.70;;;;;;2256398;61;20355;-70
2022/11/06 11:03:22;0.00;0.00;0.62;0.00;0.00;0.62;2.30;1.30;;;24.30;26.20;;;;;;2257454;61;20413;-71
2022/11/06 11:06:08;0.00;0.00;0.62;0.00;0.00;0.62;1.80;1.17;;;24.30;26.10;;;;;;2257616;61;20367;-69
2022/11/06 11:08:52;0.00;0.00;0.62;0.00;0.00;0.62;2.73;1.53;;;24.40;26.20;;;;;;2257284;61;20727;-64
2022/11/06 11:11:48;0.00;0.00;0.62;0.00;0.00;0.62;1.70;1.30;;;24.50;26.20;;;;;;2257454;61;20390;-69
2022/11/06 11:14:33;0.00;0.00;0.62;0.00;0.00;0.62;1.83;1.20;;;24.50;26.20;;;;;;2256797;61;20390;-68
2022/11/06 11:17:19;0.00;0.00;0.62;0.00;0.00;0.62;1.60;1.07;;;24.60;26.20;;;;;;2256450;61;20358;-68
2022/11/06 11:20:30;0.00;0.00;0.62;0.00;0.00;0.62;1.93;1.20;;;24.60;26.10;;;;;;2257184;61;20374;-64